Time;durP1;ratioP1;P1;durP2;ratioP2;P2;SDS_P1;SDS_P2;PMS_P1;PMS_P2;Temp;Humidity;BMP_temperature;BMP_pressure;BME280_temperature;BME280_humidity;BME280_pressure;Samples;Min_cycle;Max_cycle;Signal;HPM_P1;HPM_P2
2020/12/30 00:01:59;;;;;;;22.48;8.43;;;;;;;5.71;82.49;99019.72;5052557;28;20067;-76
2020/12/30 00:04:25;;;;;;;16.63;9.07;;;;;;;5.68;82.76;99007.50;5034647;28;20061;-75
2020/12/30 00:06:53;;;;;;;19.30;8.98;;;;;;;5.66;83.16;99012.03;5034794;28;20037;-77
2020/12/30 00:09:18;;;;;;;14.02;8.20;;;;;;;5.56;83.25;98997.66;5052273;28;20079;-77
2020/12/30 00:11:44;;;;;;;15.52;7.78;;;;;;;5.69;83.09;99011.88;5052459;28;20040;-77
2020/12/30 00:14:09;;;;;;;15.48;8.52;;;;;;;5.80;82.55;98997.16;5017898;28;20029;-77
2020/12/30 00:16:35;;;;;;;16.52;8.68;;;;;;;5.69;81.98;98980.13;5018568;28;20109;-76
2020/12/30 00:19:00;;;;;;;16.95;8.93;;;;;;;5.95;81.61;99009.47;5034778;28;20037;-76
2020/12/30 00:21:25;;;;;;;15.65;9.05;;;;;;;5.94;81.71;98999.84;5017894;28;20179;-76
2020/12/30 00:23:51;;;;;;;16.00;9.00;;;;;;;5.83;82.32;99012.84;5052379;28;20493;-76
2020/12/30 00:26:18;;;;;;;14.90;8.15;;;;;;;5.70;81.95;98989.78;5034369;28;20127;-76
2020/12/30 00:28:44;;;;;;;17.00;8.88;;;;;;;5.70;81.63;98987.13;5052326;28;20544;-76
2020/12/30 00:31:10;;;;;;;15.27;8.52;;;;;;;5.64;81.82;98976.91;5051943;28;20033;-77
2020/12/30 00:33:35;;;;;;;15.05;8.02;;;;;;;5.88;82.08;99021.34;5052265;28;20029;-76
2020/12/30 00:36:00;;;;;;;16.52;9.48;;;;;;;5.97;81.50;99026.09;5034488;28;20421;-75
2020/12/30 00:38:26;;;;;;;15.00;8.68;;;;;;;5.96;81.47;99019.97;5017780;28;20119;-75
2020/12/30 00:40:51;;;;;;;13.93;8.20;;;;;;;5.93;81.53;99019.31;5052195;28;20029;-74
2020/12/30 00:43:17;;;;;;;15.05;8.70;;;;;;;5.81;81.18;98996.22;5052065;28;20033;-74
2020/12/30 00:45:42;;;;;;;16.80;8.55;;;;;;;5.93;81.37;99021.94;5034512;28;20033;-74
2020/12/30 00:48:08;;;;;;;17.17;9.43;;;;;;;5.98;81.27;99020.75;5055203;28;20033;-74
2020/12/30 00:50:33;;;;;;;18.20;8.98;;;;;;;5.91;81.07;99007.97;5037919;28;20375;-75
2020/12/30 00:52:59;;;;;;;15.65;8.68;;;;;;;5.83;80.88;99002.25;5037963;28;20467;-75
2020/12/30 00:55:24;;;;;;;19.30;9.60;;;;;;;5.82;81.13;99011.13;5055536;28;20036;-74
2020/12/30 00:57:49;;;;;;;16.92;8.13;;;;;;;5.63;81.07;98977.84;5055509;28;20048;-74
2020/12/30 01:00:15;;;;;;;13.55;8.07;;;;;;;5.97;80.88;99024.31;5055261;28;20036;-74
2020/12/30 01:02:43;;;;;;;16.80;8.73;;;;;;;5.96;81.07;99017.31;5055808;28;20037;-74
2020/12/30 01:05:08;;;;;;;19.92;9.20;;;;;;;5.96;80.81;99006.72;5055570;28;20032;-74
2020/12/30 01:07:33;;;;;;;18.20;9.35;;;;;;;5.95;80.56;99023.56;5055093;28;20037;-76
2020/12/30 01:09:59;;;;;;;18.98;9.43;;;;;;;5.93;80.64;99009.56;5021299;28;20033;-74
2020/12/30 01:12:25;;;;;;;16.52;9.15;;;;;;;5.93;80.76;99012.22;5037223;28;20378;-75
2020/12/30 01:14:50;;;;;;;16.60;9.00;;;;;;;5.77;80.53;98977.00;5037832;28;20040;-75
2020/12/30 01:17:15;;;;;;;17.33;8.95;;;;;;;5.98;80.66;99009.28;5055357;28;20382;-76
2020/12/30 01:19:41;;;;;;;19.05;8.57;;;;;;;6.04;80.48;99008.91;5055515;28;20033;-74
2020/12/30 01:22:06;;;;;;;17.38;8.80;;;;;;;5.93;80.20;98987.53;5020905;28;20079;-76
2020/12/30 01:24:32;;;;;;;17.90;8.52;;;;;;;6.02;80.06;99000.22;5055143;28;20028;-76
2020/12/30 01:26:57;;;;;;;15.93;8.43;;;;;;;5.94;80.16;98989.25;5020920;28;20033;-76
2020/12/30 01:29:22;;;;;;;17.60;9.18;;;;;;;5.93;79.93;98982.25;5050935;28;20060;-76
2020/12/30 01:31:48;;;;;;;14.85;8.40;;;;;;;6.02;79.59;99005.50;5074199;28;20490;-75
2020/12/30 01:34:13;;;;;;;16.17;8.50;;;;;;;6.00;80.02;99000.31;5073682;28;20032;-77
2020/12/30 01:36:39;;;;;;;17.05;8.05;;;;;;;5.95;79.89;98989.16;5057467;28;20044;-76
2020/12/30 01:39:05;;;;;;;19.00;8.65;;;;;;;5.92;80.47;98999.09;5073779;28;20028;-74
2020/12/30 01:41:31;;;;;;;20.30;9.65;;;;;;;5.92;80.69;99007.03;5074445;28;20037;-76
2020/12/30 01:43:57;;;;;;;16.20;8.50;;;;;;;5.65;80.23;98962.72;5074998;28;20082;-76
2020/12/30 01:46:37;;;;;;;17.60;9.27;;;;;;;5.87;80.95;99003.75;5074637;28;20028;-75
2020/12/30 01:49:05;;;;;;;16.23;8.40;;;;;;;5.86;80.96;99002.91;5074825;28;20027;-76
2020/12/30 01:51:31;;;;;;;16.00;8.98;;;;;;;5.70;81.43;98995.06;5074712;28;20111;-76
2020/12/30 01:53:58;;;;;;;19.75;9.65;;;;;;;5.80;81.28;99015.69;5073427;28;20028;-76
2020/12/30 01:56:28;;;;;;;20.17;10.43;;;;;;;6.01;79.70;99019.69;5074555;28;20037;-77
2020/12/30 01:58:54;;;;;;;22.30;9.85;;;;;;;6.01;79.72;98998.53;5074643;28;20044;-76
2020/12/30 02:01:23;;;;;;;17.73;9.73;;;;;;;6.11;79.13;99018.19;5073521;28;20024;-76
2020/12/30 02:03:53;;;;;;;19.27;9.95;;;;;;;5.99;79.69;99018.94;5074893;28;20085;-76
2020/12/30 02:06:19;;;;;;;21.40;9.25;;;;;;;6.05;79.94;99033.59;5074299;28;20077;-76
2020/12/30 02:08:45;;;;;;;18.38;9.30;;;;;;;6.03;79.57;99031.03;5074522;28;20457;-76
2020/12/30 02:11:11;;;;;;;18.70;8.98;;;;;;;6.09;78.99;99035.97;5073430;28;20477;-76
2020/12/30 02:13:36;;;;;;;17.65;9.10;;;;;;;6.01;78.79;99009.09;5073289;28;20033;-76
2020/12/30 02:16:02;;;;;;;15.02;8.48;;;;;;;6.07;78.86;99021.09;5073106;28;20044;-76
2020/12/30 02:18:27;;;;;;;17.77;9.15;;;;;;;6.07;79.26;99043.13;5074356;28;20036;-76
2020/12/30 02:20:53;;;;;;;19.00;9.18;;;;;;;6.07;79.61;99048.41;5073025;28;20177;-75
2020/12/30 02:23:19;;;;;;;17.45;8.50;;;;;;;5.84;80.09;99019.81;5072445;28;20028;-75
2020/12/30 02:25:44;;;;;;;19.95;8.90;;;;;;;6.14;79.42;99049.75;5074059;28;20032;-75
2020/12/30 02:28:11;;;;;;;16.73;8.25;;;;;;;6.07;79.85;99042.28;5055888;28;20052;-75
2020/12/30 02:30:36;;;;;;;14.40;7.93;;;;;;;6.00;80.22;99028.59;5072475;28;20481;-75
2020/12/30 02:33:04;;;;;;;15.80;7.97;;;;;;;6.06;80.98;99038.78;5072799;28;20032;-75
2020/12/30 02:35:29;;;;;;;15.82;8.38;;;;;;;5.96;80.96;99021.75;5072244;28;20386;-77
2020/12/30 02:37:55;;;;;;;16.48;8.32;;;;;;;5.93;81.30;99043.13;5073628;28;20032;-75
2020/12/30 02:40:20;;;;;;;15.52;7.63;;;;;;;6.02;81.36;99048.72;5073580;28;20032;-78
2020/12/30 02:42:46;;;;;;;19.92;8.82;;;;;;;6.06;81.44;99052.00;5072653;28;20040;-78
2020/12/30 02:45:11;;;;;;;17.45;8.63;;;;;;;6.00;81.85;99050.63;5072463;28;20037;-78
2020/12/30 02:47:37;;;;;;;15.93;7.82;;;;;;;6.02;82.16;99048.72;5038749;28;20037;-78
2020/12/30 02:50:04;;;;;;;15.98;8.07;;;;;;;5.99;81.99;99045.41;5072321;28;20028;-77
2020/12/30 02:52:30;;;;;;;18.67;8.15;;;;;;;6.06;82.53;99041.44;5055464;28;20041;-76
2020/12/30 02:54:55;;;;;;;15.65;7.68;;;;;;;5.94;83.22;99021.84;5073625;28;20035;-76
2020/12/30 02:57:21;;;;;;;15.23;7.68;;;;;;;6.04;83.57;99032.75;5073413;28;20032;-77
2020/12/30 02:59:46;;;;;;;13.50;7.03;;;;;;;5.97;84.51;99023.47;5072293;28;20032;-76
2020/12/30 03:02:12;;;;;;;16.70;8.18;;;;;;;5.90;84.97;99009.75;5072346;28;20037;-76
2020/12/30 03:04:37;;;;;;;13.57;7.50;;;;;;;5.73;85.54;98986.94;5071744;28;20036;-76
2020/12/30 03:07:03;;;;;;;15.13;7.55;;;;;;;5.95;85.94;99007.66;5071985;28;20038;-76
2020/12/30 03:09:28;;;;;;;16.15;7.30;;;;;;;5.90;86.15;99022.13;5071255;28;20028;-76
2020/12/30 03:11:54;;;;;;;12.90;7.30;;;;;;;5.58;86.11;98968.47;5055417;28;20032;-77
2020/12/30 03:14:20;;;;;;;23.42;11.90;;;;;;;5.91;86.59;99015.91;5038794;28;20043;-82
2020/12/30 03:16:46;;;;;;;22.27;11.02;;;;;;;5.90;86.82;99008.88;5073171;28;20032;-77
2020/12/30 03:19:12;;;;;;;17.80;8.27;;;;;;;5.67;87.14;98968.78;5055356;28;20393;-77
2020/12/30 03:21:37;;;;;;;14.82;8.02;;;;;;;5.88;87.46;99005.47;5071743;28;20044;-77
2020/12/30 03:24:03;;;;;;;16.38;7.30;;;;;;;6.05;86.93;98996.53;5071797;28;20462;-77
2020/12/30 03:26:31;;;;;;;16.80;7.78;;;;;;;6.09;86.42;98990.13;5072745;28;20040;-77
2020/12/30 03:28:58;;;;;;;13.65;7.40;;;;;;;5.87;86.07;98956.97;5071494;28;20599;-77
2020/12/30 03:31:30;;;;;;;14.98;8.00;;;;;;;5.88;86.83;98957.81;5072757;28;20045;-76
2020/12/30 03:33:57;;;;;;;15.88;7.28;;;;;;;6.00;87.53;98991.53;5054937;28;20044;-77
2020/12/30 03:36:23;;;;;;;13.65;7.20;;;;;;;6.13;86.80;98983.66;5072815;28;20036;-77
2020/12/30 03:38:48;;;;;;;14.57;7.88;;;;;;;6.03;87.27;98989.53;5072979;28;20034;-78
2020/12/30 03:41:13;;;;;;;15.48;7.65;;;;;;;5.77;87.89;98949.69;5054987;28;20029;-77
2020/12/30 03:43:39;;;;;;;13.70;7.78;;;;;;;5.93;88.45;98988.41;5071276;28;20055;-77
2020/12/30 03:46:04;;;;;;;15.18;7.95;;;;;;;5.95;88.58;98990.94;5054871;28;20036;-77
2020/12/30 03:48:29;;;;;;;15.63;7.60;;;;;;;5.94;88.33;98979.50;5054626;28;20037;-77
2020/12/30 03:50:55;;;;;;;16.92;7.35;;;;;;;5.93;88.43;98976.97;5071892;28;20024;-77
2020/12/30 03:53:20;;;;;;;15.75;8.30;;;;;;;5.91;88.83;98976.22;5073228;28;20405;-77
2020/12/30 03:55:46;;;;;;;15.10;8.40;;;;;;;5.99;88.93;98961.56;5071484;28;20040;-76
2020/12/30 03:58:11;;;;;;;17.50;8.30;;;;;;;6.13;88.87;98967.78;5071769;28;20051;-75
2020/12/30 04:00:36;;;;;;;15.10;7.80;;;;;;;5.94;88.85;98937.16;5071417;28;20036;-75
2020/12/30 04:03:02;;;;;;;13.60;7.90;;;;;;;6.20;88.36;98971.75;5072926;28;20042;-75
2020/12/30 04:05:27;;;;;;;13.60;7.70;;;;;;;6.15;88.85;98972.03;5071079;28;20421;-75
2020/12/30 04:07:53;;;;;;;17.65;8.38;;;;;;;6.09;89.39;98942.47;5072714;28;20048;-75
2020/12/30 04:10:18;;;;;;;15.93;8.23;;;;;;;6.03;89.20;98927.81;5072650;28;20056;-74
2020/12/30 04:12:44;;;;;;;14.13;7.72;;;;;;;6.14;89.61;98965.03;5072456;28;20085;-73
2020/12/30 04:15:09;;;;;;;13.95;7.57;;;;;;;6.23;89.43;98969.75;5054858;28;20032;-76
2020/12/30 04:17:34;;;;;;;14.05;7.97;;;;;;;6.08;89.96;98970.72;5072185;28;20071;-77
2020/12/30 04:20:00;;;;;;;14.00;8.15;;;;;;;6.07;90.17;98968.16;5054729;28;20033;-75
2020/12/30 04:22:25;;;;;;;16.17;7.88;;;;;;;5.77;89.88;98923.22;5057805;28;20068;-76
2020/12/30 04:24:51;;;;;;;16.15;8.18;;;;;;;5.76;90.18;98917.09;5075300;28;20028;-75
2020/12/30 04:27:16;;;;;;;15.25;8.73;;;;;;;5.85;90.91;98947.44;5058678;28;20106;-74
2020/12/30 04:29:41;;;;;;;17.17;8.30;;;;;;;5.76;91.85;98948.84;5058561;28;20059;-77
2020/12/30 04:32:07;;;;;;;15.43;8.20;;;;;;;5.83;90.64;98949.31;5038640;28;20040;-77
2020/12/30 04:34:32;;;;;;;16.08;8.02;;;;;;;5.83;89.55;98938.75;5055730;28;20037;-78
2020/12/30 04:36:58;;;;;;;16.45;8.25;;;;;;;5.83;89.93;98952.81;5056180;28;20351;-78
2020/12/30 04:39:23;;;;;;;17.25;8.30;;;;;;;5.78;90.20;98939.00;5022151;28;20052;-77
2020/12/30 04:41:49;;;;;;;13.90;7.47;;;;;;;5.97;89.69;98954.63;5055697;28;20467;-77
2020/12/30 04:44:17;;;;;;;15.02;8.25;;;;;;;5.69;90.28;98911.34;5056329;28;20039;-78
2020/12/30 04:46:44;;;;;;;18.33;8.82;;;;;;;5.89;90.71;98954.25;5055689;28;20037;-78
2020/12/30 04:49:10;;;;;;;17.08;8.57;;;;;;;5.94;90.63;98960.97;5005163;28;20041;-77
2020/12/30 04:51:38;;;;;;;18.17;10.00;;;;;;;5.74;91.18;98941.00;5038041;28;20035;-77
2020/12/30 04:54:05;;;;;;;17.35;8.93;;;;;;;5.84;90.83;98943.94;5055764;28;20047;-77
2020/12/30 04:57:01;;;;;;;16.45;8.38;;;;;;;5.77;91.17;98960.28;5055424;28;20037;-78
2020/12/30 04:59:39;;;;;;;17.50;8.27;;;;;;;5.80;91.37;98954.81;5037508;28;20029;-78
2020/12/30 05:02:10;;;;;;;15.65;8.77;;;;;;;5.86;91.29;98949.13;5038320;28;20548;-77
2020/12/30 05:04:37;;;;;;;15.93;8.88;;;;;;;5.55;91.60;98908.69;5055487;28;20036;-74
2020/12/30 05:07:14;;;;;;;18.00;8.93;;;;;;;5.86;91.17;98949.13;5037963;28;20040;-74
2020/12/30 05:09:42;;;;;;;18.70;9.02;;;;;;;5.77;91.64;98955.84;5055206;28;20163;-74
2020/12/30 05:12:19;;;;;;;21.48;9.85;;;;;;;5.69;91.82;98944.84;5037976;28;20496;-74
2020/12/30 05:14:45;;;;;;;19.10;9.18;;;;;;;5.82;91.68;98947.63;5037280;28;20477;-75
2020/12/30 05:17:12;;;;;;;17.75;8.90;;;;;;;5.70;91.42;98934.22;5037871;28;20033;-74
2020/12/30 05:19:38;;;;;;;18.98;9.10;;;;;;;5.81;90.99;98945.94;5037375;28;20041;-77
2020/12/30 05:22:05;;;;;;;14.65;8.27;;;;;;;5.64;91.57;98933.72;5037643;28;20120;-77
2020/12/30 05:24:31;;;;;;;18.58;9.10;;;;;;;5.67;92.41;98952.91;5020508;28;20037;-77
2020/12/30 05:27:00;;;;;;;17.27;8.60;;;;;;;5.69;92.13;98936.91;5037337;28;20041;-77
2020/12/30 05:29:26;;;;;;;16.60;9.13;;;;;;;5.71;91.85;98951.78;5048043;28;20059;-77
2020/12/30 05:31:55;;;;;;;19.38;8.90;;;;;;;5.73;92.20;98962.28;5074781;28;20481;-76
2020/12/30 05:34:22;;;;;;;15.38;8.85;;;;;;;5.58;92.93;98950.81;5073367;28;20087;-76
2020/12/30 05:36:49;;;;;;;14.15;8.75;;;;;;;5.74;92.52;98956.88;5073505;28;20036;-77
2020/12/30 05:39:32;;;;;;;16.02;9.10;;;;;;;5.60;91.85;98921.66;5073813;28;20043;-77
2020/12/30 05:42:12;;;;;;;16.33;9.13;;;;;;;5.44;92.22;98911.13;5073916;28;20025;-77
2020/12/30 05:44:38;;;;;;;15.95;8.88;;;;;;;5.71;92.39;98956.22;5074890;28;20377;-77
2020/12/30 05:47:14;;;;;;;16.10;9.20;;;;;;;5.77;92.07;98954.97;5073701;28;20036;-77
2020/12/30 05:49:40;;;;;;;16.42;9.10;;;;;;;5.45;92.31;98897.81;5074673;28;20029;-78
2020/12/30 05:52:19;;;;;;;19.35;8.48;;;;;;;5.83;92.58;98952.81;5074770;28;20393;-77
2020/12/30 05:54:52;;;;;;;19.83;9.05;;;;;;;5.90;92.05;98953.31;5073383;28;20038;-77
2020/12/30 05:57:29;;;;;;;17.63;8.32;;;;;;;5.86;92.07;98949.97;5073300;28;20039;-77
2020/12/30 06:00:12;;;;;;;17.77;9.32;;;;;;;5.72;93.07;98963.22;5074432;28;20152;-77
2020/12/30 06:02:45;;;;;;;15.32;9.20;;;;;;;5.65;93.40;98957.44;5074421;28;20024;-77
2020/12/30 06:05:18;;;;;;;19.63;9.25;;;;;;;5.67;93.68;98950.25;5073370;28;20446;-77
2020/12/30 06:07:47;;;;;;;17.33;9.50;;;;;;;5.75;93.90;98968.31;5072758;28;20032;-76
2020/12/30 06:10:14;;;;;;;16.65;8.40;;;;;;;5.67;93.57;98934.38;5073234;28;20040;-76
2020/12/30 06:12:51;;;;;;;18.92;10.15;;;;;;;5.96;92.91;98972.31;5072744;28;20036;-77
2020/12/30 06:15:19;;;;;;;17.45;9.50;;;;;;;5.85;93.44;98968.59;5074377;28;20037;-78
2020/12/30 06:18:00;;;;;;;17.70;9.90;;;;;;;5.73;93.58;98965.75;5072654;28;20039;-76
2020/12/30 06:20:32;;;;;;;18.13;9.73;;;;;;;5.90;93.65;98979.78;5074065;28;20036;-77
2020/12/30 06:22:58;;;;;;;17.00;8.93;;;;;;;6.01;93.19;98980.00;5072873;28;20033;-77
2020/12/30 06:25:25;;;;;;;15.95;8.60;;;;;;;5.98;93.00;98982.81;5074225;28;20025;-77
2020/12/30 06:27:52;;;;;;;19.15;9.88;;;;;;;5.89;93.37;98986.00;5071210;28;20043;-75
2020/12/30 06:30:17;;;;;;;18.02;9.02;;;;;;;6.04;92.53;98995.69;5036266;28;20033;-77
2020/12/30 06:32:43;;;;;;;22.08;10.35;;;;;;;5.94;93.04;98994.53;5035900;28;20127;-77
2020/12/30 06:35:09;;;;;;;18.05;9.65;;;;;;;6.04;92.97;98990.38;5036323;28;20371;-77
2020/12/30 06:37:36;;;;;;;20.75;9.95;;;;;;;6.02;92.72;98997.56;5019493;28;20124;-78
2020/12/30 06:40:21;;;;;;;23.25;10.70;;;;;;;5.83;93.07;98989.03;5036315;28;20382;-77
2020/12/30 06:42:55;;;;;;;19.13;10.98;;;;;;;5.78;93.59;98983.13;5053316;28;20413;-77
2020/12/30 06:45:42;;;;;;;20.85;10.95;;;;;;;5.96;93.43;98995.28;5052677;28;20449;-76
2020/12/30 06:48:09;;;;;;;21.08;11.68;;;;;;;5.95;93.14;98985.66;5053456;28;20029;-76
2020/12/30 06:50:34;;;;;;;19.30;10.88;;;;;;;5.95;93.18;98990.94;5035731;28;20481;-82
2020/12/30 06:53:47;;;;;;;21.15;10.75;;;;;;;5.84;93.64;99006.59;5053572;28;20040;-77
2020/12/30 06:56:13;;;;;;;18.05;9.45;;;;;;;5.71;93.80;98994.13;4953216;29;20039;-77
2020/12/30 06:58:51;;;;;;;16.88;8.95;;;;;;;6.05;92.93;98999.16;4936904;29;20046;-78
2020/12/30 07:01:20;;;;;;;18.73;9.27;;;;;;;5.96;92.70;98998.78;5014094;28;20048;-77
2020/12/30 07:03:47;;;;;;;19.23;10.60;;;;;;;5.81;93.59;98988.28;5035103;28;20033;-78
2020/12/30 07:06:30;;;;;;;18.85;10.10;;;;;;;5.88;93.81;99006.31;5018996;28;20040;-75
2020/12/30 07:09:04;;;;;;;15.00;9.23;;;;;;;5.93;93.54;99011.38;5036032;28;20041;-75
2020/12/30 07:11:36;;;;;;;19.52;10.40;;;;;;;5.86;93.99;99015.28;5053416;28;20029;-75
2020/12/30 07:14:04;;;;;;;13.77;7.82;;;;;;;5.46;94.14;98972.72;5035497;28;20098;-75
2020/12/30 07:16:33;;;;;;;14.43;8.60;;;;;;;5.93;93.31;99016.66;5035076;28;20124;-74
2020/12/30 07:18:59;;;;;;;14.25;7.65;;;;;;;5.86;93.17;99024.06;5052712;28;20140;-75
2020/12/30 07:21:25;;;;;;;14.32;7.60;;;;;;;5.74;93.26;99022.19;5052957;28;20112;-75
2020/12/30 07:23:53;;;;;;;17.95;10.05;;;;;;;5.85;94.03;99032.13;5018441;28;20047;-75
2020/12/30 07:26:20;;;;;;;23.63;11.90;;;;;;;5.88;94.08;99031.91;5035551;28;20037;-75
2020/12/30 07:28:47;;;;;;;19.55;10.77;;;;;;;5.92;93.78;99025.56;5053170;28;20057;-78
2020/12/30 07:31:14;;;;;;;19.85;11.73;;;;;;;5.89;93.98;99028.34;5018800;28;20025;-77
2020/12/30 07:33:40;;;;;;;20.67;11.68;;;;;;;5.93;93.82;99012.22;5052874;28;20040;-77
2020/12/30 07:36:09;;;;;;;19.35;11.90;;;;;;;6.07;93.33;99026.41;5053271;28;20044;-77
2020/12/30 07:38:37;;;;;;;18.75;10.82;;;;;;;6.01;93.10;99032.94;5053040;28;20028;-75
2020/12/30 07:41:10;;;;;;;24.35;12.57;;;;;;;5.90;94.17;99036.22;5052671;28;20115;-77
2020/12/30 07:43:49;;;;;;;18.83;11.23;;;;;;;5.86;94.37;99047.03;5035275;28;20064;-76
2020/12/30 07:46:16;;;;;;;18.15;11.07;;;;;;;5.66;94.35;99012.03;5052683;28;20061;-77
2020/12/30 07:48:42;;;;;;;19.77;11.65;;;;;;;5.88;94.49;99037.22;5034682;28;20033;-76
2020/12/30 07:51:07;;;;;;;20.98;11.13;;;;;;;5.69;94.35;99003.94;5052721;28;20044;-76
2020/12/30 07:53:33;;;;;;;23.50;12.48;;;;;;;5.93;94.40;99035.19;5034930;28;20125;-76
2020/12/30 07:55:58;;;;;;;22.00;12.77;;;;;;;6.03;93.07;99031.03;5053577;28;20040;-76
2020/12/30 07:58:24;;;;;;;24.30;12.93;;;;;;;6.13;92.82;99028.69;5056637;28;20098;-76
2020/12/30 08:00:54;;;;;;;23.92;13.27;;;;;;;6.06;92.31;99033.50;5038413;28;20436;-76
2020/12/30 08:03:21;;;;;;;22.23;12.20;;;;;;;6.10;92.42;99035.03;5057264;28;20051;-76
2020/12/30 08:05:50;;;;;;;21.73;12.40;;;;;;;6.23;91.77;99043.06;5056822;28;20037;-77
2020/12/30 08:08:19;;;;;;;24.33;12.60;;;;;;;6.01;91.98;99002.00;5056882;28;20087;-74
2020/12/30 08:10:48;;;;;;;24.45;13.48;;;;;;;6.06;92.05;98977.03;5038518;28;20422;-81
2020/12/30 08:13:14;;;;;;;22.30;12.82;;;;;;;6.03;92.69;98993.97;5056506;28;20036;-77
2020/12/30 08:15:52;;;;;;;23.70;13.02;;;;;;;5.98;91.98;98980.16;5038642;28;20029;-78
2020/12/30 08:18:18;;;;;;;23.88;13.93;;;;;;;5.91;92.43;99010.63;5056641;28;20033;-76
2020/12/30 08:20:44;;;;;;;25.75;14.32;;;;;;;5.99;93.62;99051.56;5056234;28;20036;-76
2020/12/30 08:23:09;;;;;;;22.98;14.52;;;;;;;5.68;94.70;99067.50;5022122;28;20087;-75
2020/12/30 08:25:35;;;;;;;22.20;12.82;;;;;;;5.62;95.42;99071.38;5039012;28;20025;-79
2020/12/30 08:28:04;;;;;;;22.30;13.30;;;;;;;5.31;95.78;99039.75;5041907;28;20060;-75
2020/12/30 08:30:33;;;;;;;22.15;12.38;;;;;;;5.49;95.86;99069.53;5076350;28;20466;-74
2020/12/30 08:33:08;;;;;;;20.40;12.60;;;;;;;5.62;94.93;99063.44;5074788;28;20036;-74
2020/12/30 08:35:45;;;;;;;23.00;12.50;;;;;;;5.76;94.29;99052.03;5075050;28;20081;-75
2020/12/30 08:38:17;;;;;;;25.63;13.48;;;;;;;5.78;93.90;99055.44;5081360;28;20495;-73
2020/12/30 08:40:46;;;;;;;27.00;13.73;;;;;;;5.89;93.59;99049.53;5076176;28;20502;-76
2020/12/30 08:43:11;;;;;;;23.98;12.70;;;;;;;5.94;93.68;99047.47;5075838;28;20486;-78
2020/12/30 08:45:58;;;;;;;23.00;12.68;;;;;;;5.99;93.40;99056.00;5076063;28;20021;-79
2020/12/30 08:48:27;;;;;;;24.15;13.90;;;;;;;5.88;93.66;99056.59;5074431;28;20036;-75
2020/12/30 08:50:52;;;;;;;22.90;14.07;;;;;;;5.87;94.02;99065.47;5075820;28;20493;-75
2020/12/30 08:53:39;;;;;;;21.90;12.95;;;;;;;6.00;92.93;99073.59;5074641;28;20118;-75
2020/12/30 08:56:06;;;;;;;22.02;13.07;;;;;;;6.01;93.06;99070.00;5074383;28;20032;-75
2020/12/30 08:58:32;;;;;;;25.05;12.77;;;;;;;6.10;92.81;99052.69;5074563;28;20079;-77
2020/12/30 09:00:58;;;;;;;21.73;12.75;;;;;;;5.99;93.00;99051.56;5075532;28;20103;-77
2020/12/30 09:03:28;;;;;;;22.50;12.82;;;;;;;5.68;92.95;98996.06;5075605;28;20130;-73
2020/12/30 09:05:55;;;;;;;23.25;13.40;;;;;;;5.91;93.11;99031.78;5074225;28;20032;-75
2020/12/30 09:08:28;;;;;;;22.65;12.98;;;;;;;6.00;92.96;99034.72;5074474;28;20413;-75
2020/12/30 09:10:54;;;;;;;24.23;14.90;;;;;;;6.16;92.73;99044.38;5075691;28;20040;-77
2020/12/30 09:13:21;;;;;;;23.02;13.48;;;;;;;6.19;92.70;99047.69;5075334;28;20374;-79
2020/12/30 09:15:54;;;;;;;25.27;13.98;;;;;;;6.25;92.51;99035.84;5070296;28;20028;-78
2020/12/30 09:18:21;;;;;;;23.63;14.32;;;;;;;6.32;92.46;99019.50;5091645;28;20031;-79
2020/12/30 09:20:47;;;;;;;23.95;13.43;;;;;;;6.33;91.72;99028.28;5077734;28;20036;-75
2020/12/30 09:23:12;;;;;;;23.90;13.90;;;;;;;6.20;91.99;99007.03;5094263;28;20508;-80
2020/12/30 09:25:41;;;;;;;21.45;13.82;;;;;;;6.26;91.74;99005.78;5094332;28;20047;-79
2020/12/30 09:28:20;;;;;;;23.77;13.60;;;;;;;6.56;91.32;99032.16;5093409;28;20110;-77
2020/12/30 09:30:47;;;;;;;23.20;14.20;;;;;;;6.63;91.76;99035.25;5095156;28;20043;-74
2020/12/30 09:33:24;;;;;;;21.15;12.68;;;;;;;6.71;90.78;99039.13;5095338;28;20051;-76
2020/12/30 09:35:51;;;;;;;20.85;13.10;;;;;;;6.67;90.46;99042.94;5093905;28;20028;-85
2020/12/30 09:38:20;;;;;;;22.15;12.48;;;;;;;6.68;91.15;99049.94;5093778;28;20036;-76
2020/12/30 09:40:47;;;;;;;20.45;11.32;;;;;;;6.80;91.27;99054.47;5094898;28;20028;-75
2020/12/30 09:43:17;;;;;;;20.98;11.70;;;;;;;6.70;90.28;99058.63;5095117;28;20028;-76
2020/12/30 09:45:43;;;;;;;18.27;12.05;;;;;;;6.46;91.19;99026.56;5086801;28;20032;-75
2020/12/30 09:48:17;;;;;;;19.55;12.30;;;;;;;6.67;91.58;99064.13;5074318;28;20036;-77
2020/12/30 09:50:44;;;;;;;18.83;11.07;;;;;;;6.80;92.10;99066.84;5074594;28;20055;-75
2020/12/30 09:53:09;;;;;;;22.60;13.43;;;;;;;6.87;92.18;99071.69;5074611;28;20384;-76
2020/12/30 09:55:35;;;;;;;16.33;10.65;;;;;;;7.00;91.05;99060.28;5074592;28;20115;-75
2020/12/30 09:58:02;;;;;;;19.20;11.18;;;;;;;6.86;90.85;99027.56;5074550;28;20040;-75
2020/12/30 10:00:27;;;;;;;14.95;10.35;;;;;;;7.15;90.74;99043.41;5074668;28;20111;-76
2020/12/30 10:02:53;;;;;;;14.07;10.00;;;;;;;7.10;89.44;99006.56;5073312;28;20552;-76
2020/12/30 10:05:19;;;;;;;14.98;8.85;;;;;;;7.17;88.43;99013.16;5074658;28;20037;-76
2020/12/30 10:07:44;;;;;;;12.48;8.10;;;;;;;7.13;89.47;99038.16;5074494;28;20044;-76
2020/12/30 10:10:10;;;;;;;13.77;8.85;;;;;;;7.02;90.36;99034.50;5074619;28;20036;-77
2020/12/30 10:12:38;;;;;;;12.93;9.15;;;;;;;6.97;91.50;99049.88;5067885;28;20033;-79
2020/12/30 10:15:12;;;;;;;14.55;9.63;;;;;;;6.96;91.81;99030.47;5064157;28;20036;-76
2020/12/30 10:17:39;;;;;;;14.63;9.40;;;;;;;7.05;91.32;99029.03;5055895;28;20036;-76
2020/12/30 10:20:07;;;;;;;9.90;7.03;;;;;;;7.08;91.46;99018.22;5051578;28;20025;-75
2020/12/30 10:22:32;;;;;;;11.07;7.10;;;;;;;7.28;90.13;99007.16;5053843;28;20028;-76
2020/12/30 10:24:59;;;;;;;11.38;7.43;;;;;;;7.20;90.58;99004.13;5054170;28;20386;-77
2020/12/30 10:27:24;;;;;;;10.75;6.68;;;;;;;6.91;90.17;98946.88;5036218;28;20051;-78
2020/12/30 10:29:50;;;;;;;10.48;6.25;;;;;;;7.00;90.22;98943.63;5052659;28;20509;-77
2020/12/30 10:32:15;;;;;;;8.57;5.72;;;;;;;7.20;90.67;98993.53;5054215;28;20033;-78
2020/12/30 10:34:41;;;;;;;9.55;5.90;;;;;;;7.13;91.05;99000.19;5052552;28;20029;-78
2020/12/30 10:37:07;;;;;;;11.93;7.75;;;;;;;7.36;90.28;98999.53;5053356;28;20033;-76
2020/12/30 10:39:33;;;;;;;10.43;6.13;;;;;;;7.43;89.48;98979.59;5052570;28;20037;-77
2020/12/30 10:42:00;;;;;;;9.45;5.63;;;;;;;7.52;89.37;98987.88;5056468;28;20021;-76
2020/12/30 10:44:25;;;;;;;9.43;5.95;;;;;;;7.65;88.83;98992.25;5073540;28;20036;-74
2020/12/30 10:46:52;;;;;;;8.63;5.82;;;;;;;7.85;89.03;98990.91;5073066;28;20032;-76
2020/12/30 10:49:18;;;;;;;8.23;5.65;;;;;;;7.99;88.11;98995.22;5055454;28;20107;-73
2020/12/30 10:51:48;;;;;;;9.18;5.88;;;;;;;8.08;88.48;99002.56;5071895;28;20139;-74
2020/12/30 10:54:17;;;;;;;8.48;5.60;;;;;;;8.07;88.42;99005.34;5072194;28;20036;-74
2020/12/30 10:56:50;;;;;;;8.68;5.90;;;;;;;7.90;87.79;99007.34;5072000;28;20465;-75
2020/12/30 10:59:17;;;;;;;7.93;5.57;;;;;;;7.81;88.14;98981.41;5072345;28;20044;-76
2020/12/30 11:01:42;;;;;;;8.15;5.18;;;;;;;8.10;86.94;98995.34;5072109;28;20044;-76
2020/12/30 11:04:08;;;;;;;8.50;5.72;;;;;;;8.01;86.81;98998.66;5073224;28;20058;-74
2020/12/30 11:06:34;;;;;;;9.35;6.15;;;;;;;7.94;86.14;98976.97;5072142;28;20044;-74
2020/12/30 11:09:00;;;;;;;10.25;7.05;;;;;;;7.91;87.52;99010.84;5071543;28;20063;-71
2020/12/30 11:11:26;;;;;;;10.35;6.82;;;;;;;7.81;89.72;99005.31;5071148;28;20036;-75
2020/12/30 11:13:51;;;;;;;9.48;6.57;;;;;;;7.57;89.84;98976.00;5070856;28;20127;-73
2020/12/30 11:16:17;;;;;;;10.77;7.40;;;;;;;7.82;89.95;99020.31;5051572;28;20041;-75
2020/12/30 11:18:43;;;;;;;12.98;8.18;;;;;;;7.73;89.95;99018.28;5052618;28;20040;-74
2020/12/30 11:21:09;;;;;;;11.27;7.75;;;;;;;7.73;90.26;99029.75;5052607;28;20037;-73
2020/12/30 11:23:34;;;;;;;11.45;7.78;;;;;;;7.66;90.35;99014.34;5035234;28;20037;-74
2020/12/30 11:26:00;;;;;;;12.00;8.65;;;;;;;7.49;90.59;98977.47;5051836;28;20048;-73
2020/12/30 11:28:25;;;;;;;12.85;8.75;;;;;;;7.56;91.19;98973.47;5045068;28;20057;-74
2020/12/30 11:30:51;;;;;;;13.85;8.90;;;;;;;7.81;89.89;98999.16;5033262;28;20029;-76
2020/12/30 11:33:16;;;;;;;14.30;8.95;;;;;;;7.93;88.73;98996.53;5039188;28;20064;-77
2020/12/30 11:35:44;;;;;;;12.02;8.32;;;;;;;7.89;88.38;98992.38;4998806;28;20140;-74